Airfield :
LOGIN :

Register | Disclaimer

   EN    FR    IT 

 










Legend :    VFR   Marginal VFR   IFR   Intensive IFR   Very Intensive IFR
Visi :
Ceiling :
>= 8 km
>= 3000ft
5 to 8 km
1000 to 3000 ft
1500m to 5 km
500 to 1000 ft
800 to 1500m
200 to 500 ft
< 800m
< 200 ft
Symbols :   Thunderstorms  Fog  Heavy snow  Heavy precipitations  Wind > 20 kt
SIGMETs :     Misc.  Thunderstorms  Icing  Turbulence  Mountain Waves  Volcanic Ashes






- Airport Elevation : 1708 ft
- IATA code : SJJ


LQSA - Sarajevo

CURRENT METAR :
  • 291730Z VRB01KT 6000 -SN FEW015 OVC020 M00/M01 Q1023 NOSIG

EXPIRED METARs :
  • 291700Z VRB02KT 6000 -SN FEW015 OVC020 M00/M02 Q1023 NOSIG
  • 291630Z 30002KT 6000 -SN FEW015 OVC020 M00/M02 Q1022 NOSIG
  • 291600Z VRB02KT 6000 -SN FEW015 OVC020 M00/M02 Q1022 NOSIG
  • 291530Z 00000KT 6000 -SN FEW015 OVC020 M00/M02 Q1022 NOSIG
  • 291500Z 30002KT 6000 -SN FEW015 OVC020 00/M02 Q1022 NOSIG

TAF TAF LQSA
Valid from the 29 at 18:00 until the 30 at 18:00 UTC


291700Z 2918/3018 VRB02KT 6000 BKN018 TX03/3013Z TNM04/3006Z
BECMG 3000/3002 2500 BR
PROB30 3005/3008 0500 FZFG BKN003
BECMG 3008/3010 7000 NSW



MET'MAP, your aeronautical weather chart ! - Copyright ORBIFLY December 2007 - Disclaimer

ORBIFLY MET'MAP TEAM :

Programming & Development : Alexandra Zaïnal
Original concept : Baudouin d'Aumeries
Technical & hardware support : Manuel Goepfert
Assistance : Marc-Olivier Méhu




SOURCES & CREDITS :

   NOAA